Metar Aviation Weather Data EPKT

28°C Temp
16°C Dewpoint
% Humidity
Temperature
14 KM/H
9 MPH
8 KTS
290°
West North
West

Wind Speed
Partly Cloudy
Conditions
Pressure 1015.92 (hPa) - 30 (in)
Visibility 6.2 (mi) - 10 (km)

Current Conditions
EPKT
Metar :EPKT 191130Z 29008KT 9999 FEW048 28/16 Q1016
Mon 19th August 13:30 pm

  Metar Aviation API Data Provided by https://www.checkwx.com/ PHP scripts by weather34.com ©2019